createdAt,value
2017-10-25T00:00:47.773Z,978.88
2017-10-25T00:01:58.114Z,978.93
2017-10-25T00:03:08.121Z,978.88
2017-10-25T00:04:18.125Z,978.91
2017-10-25T00:05:28.464Z,978.93
2017-10-25T00:06:38.799Z,978.96
2017-10-25T00:07:49.143Z,978.92
2017-10-25T00:08:59.482Z,978.91
2017-10-25T00:10:09.838Z,978.84
2017-10-25T00:11:19.515Z,978.87
2017-10-25T00:12:29.865Z,978.83
2017-10-25T00:13:40.200Z,978.83
2017-10-25T00:14:50.536Z,978.84
2017-10-25T00:16:00.873Z,978.82
2017-10-25T00:17:10.874Z,978.82
2017-10-25T00:18:21.229Z,978.86
2017-10-25T00:19:31.571Z,978.83
2017-10-25T00:20:41.911Z,978.84
2017-10-25T00:21:52.249Z,978.77
2017-10-25T00:23:02.594Z,978.82
2017-10-25T00:24:12.942Z,978.79
2017-10-25T00:25:23.278Z,978.77
2017-10-25T00:26:33.618Z,978.79
2017-10-25T00:27:43.960Z,978.81
2017-10-25T00:28:54.301Z,978.8
2017-10-25T00:30:04.316Z,978.79
2017-10-25T00:31:14.659Z,978.76
2017-10-25T00:32:23.991Z,978.76
2017-10-25T00:33:34.365Z,978.68
2017-10-25T00:34:44.702Z,978.71
2017-10-25T00:35:54.702Z,978.76
2017-10-25T00:37:05.047Z,978.71
2017-10-25T00:38:15.055Z,978.68
2017-10-25T00:39:25.390Z,978.7
2017-10-25T00:40:35.727Z,978.71
2017-10-25T00:41:46.074Z,978.71
2017-10-25T00:42:56.418Z,978.72
2017-10-25T00:44:06.756Z,978.66
2017-10-25T00:45:16.425Z,978.61
2017-10-25T00:46:26.091Z,978.6
2017-10-25T00:47:36.430Z,978.55
2017-10-25T00:48:46.433Z,978.53
2017-10-25T00:49:56.780Z,978.45
2017-10-25T00:51:07.128Z,978.42
2017-10-25T00:52:17.471Z,978.42
2017-10-25T00:53:27.475Z,978.39
2017-10-25T00:54:37.814Z,978.33
2017-10-25T00:55:48.155Z,978.32
2017-10-25T00:56:58.500Z,978.23
2017-10-25T00:58:08.836Z,978.26
2017-10-25T00:59:19.176Z,978.24
2017-10-25T01:00:29.202Z,978.21
2017-10-25T01:01:39.538Z,978.2
2017-10-25T01:02:49.877Z,978.17
2017-10-25T01:04:00.218Z,978.15
2017-10-25T01:05:10.222Z,978.18
2017-10-25T01:06:19.888Z,978.1
2017-10-25T01:07:30.229Z,978.15
2017-10-25T01:08:40.575Z,978.14
2017-10-25T01:09:50.913Z,978.09
2017-10-25T01:11:00.926Z,978.02
2017-10-25T01:12:10.931Z,977.97
2017-10-25T01:13:20.941Z,977.99
2017-10-25T01:14:31.283Z,977.97
2017-10-25T01:15:40.950Z,978
2017-10-25T01:16:50.952Z,978
2017-10-25T01:18:00.960Z,977.96
2017-10-25T01:19:11.300Z,977.96
2017-10-25T01:20:21.301Z,977.93
2017-10-25T01:21:31.656Z,977.96
2017-10-25T01:22:42.013Z,977.9
2017-10-25T01:23:52.376Z,977.81
2017-10-25T01:25:02.718Z,977.8
2017-10-25T01:26:13.065Z,977.8
2017-10-25T01:27:23.070Z,977.76
2017-10-25T01:28:33.426Z,977.83
2017-10-25T01:29:43.761Z,977.9
2017-10-25T01:30:53.430Z,977.92
2017-10-25T01:32:03.115Z,977.94
2017-10-25T01:33:13.464Z,977.86
2017-10-25T01:34:23.805Z,977.89
2017-10-25T01:35:34.142Z,977.91
2017-10-25T01:36:44.143Z,977.82
2017-10-25T01:37:54.146Z,977.81
2017-10-25T01:39:04.153Z,977.81
2017-10-25T01:40:14.529Z,977.82
2017-10-25T01:41:24.532Z,977.77
2017-10-25T01:42:34.196Z,977.72
2017-10-25T01:43:44.205Z,977.69
2017-10-25T01:44:54.553Z,977.71
2017-10-25T01:46:04.893Z,977.69
2017-10-25T01:47:15.230Z,977.68
2017-10-25T01:48:25.237Z,977.64
2017-10-25T01:49:35.247Z,977.63
2017-10-25T01:50:45.595Z,977.59
2017-10-25T01:51:55.601Z,977.6
2017-10-25T01:53:05.267Z,977.64
2017-10-25T01:54:15.277Z,977.6
2017-10-25T01:55:25.615Z,977.6
2017-10-25T01:56:35.951Z,977.59
2017-10-25T01:57:46.299Z,977.61
2017-10-25T01:58:56.638Z,977.63
2017-10-25T02:00:06.667Z,977.61
2017-10-25T02:01:17.014Z,977.53
2017-10-25T02:02:27.019Z,977.55
2017-10-25T02:03:37.358Z,977.55
2017-10-25T02:04:47.697Z,977.53
2017-10-25T02:05:57.710Z,977.56
2017-10-25T02:07:07.381Z,977.55
2017-10-25T02:08:17.730Z,977.53
2017-10-25T02:09:28.088Z,977.48
2017-10-25T02:10:38.433Z,977.5
2017-10-25T02:11:48.432Z,977.45
2017-10-25T02:12:58.434Z,977.41
2017-10-25T02:14:08.776Z,977.42
2017-10-25T02:15:18.784Z,977.43
2017-10-25T02:16:29.126Z,977.42
2017-10-25T02:17:39.462Z,977.43
2017-10-25T02:18:49.799Z,977.37
2017-10-25T02:19:59.799Z,977.32
2017-10-25T02:21:09.807Z,977.33
2017-10-25T02:22:20.151Z,977.32
2017-10-25T02:23:30.155Z,977.3
2017-10-25T02:24:40.503Z,977.24
2017-10-25T02:25:50.858Z,977.24
2017-10-25T02:27:01.205Z,977.22
2017-10-25T02:28:11.557Z,977.24
2017-10-25T02:29:21.895Z,977.27
2017-10-25T02:30:31.894Z,977.25
2017-10-25T02:31:42.240Z,977.19
2017-10-25T02:32:52.586Z,977.12
2017-10-25T02:34:02.930Z,977.1
2017-10-25T02:35:13.268Z,977.16
2017-10-25T02:36:23.626Z,977.14
2017-10-25T02:37:33.633Z,977.1
2017-10-25T02:38:43.975Z,977.06
2017-10-25T02:39:53.656Z,977.1
2017-10-25T02:41:04.047Z,977.16
2017-10-25T02:42:14.052Z,977.13
2017-10-25T02:43:24.393Z,977.11
2017-10-25T02:44:34.731Z,977.08
2017-10-25T02:45:45.083Z,977.09
2017-10-25T02:46:55.088Z,977.07
2017-10-25T02:48:05.427Z,977.07
2017-10-25T02:49:15.771Z,977.01
2017-10-25T02:50:25.442Z,977.06
2017-10-25T02:51:35.786Z,976.99
2017-10-25T02:52:45.795Z,976.97
2017-10-25T02:53:56.155Z,976.95
2017-10-25T02:55:06.525Z,976.94
2017-10-25T02:56:16.894Z,976.9
2017-10-25T02:57:27.240Z,976.92
2017-10-25T02:58:37.599Z,976.91
2017-10-25T02:59:47.615Z,976.85
2017-10-25T03:00:57.970Z,976.82
2017-10-25T03:02:08.319Z,976.84
2017-10-25T03:03:18.326Z,976.8
2017-10-25T03:04:28.661Z,976.83
2017-10-25T03:05:38.994Z,976.86
2017-10-25T03:06:49.339Z,976.79
2017-10-25T03:07:59.006Z,976.74
2017-10-25T03:09:09.349Z,976.7
2017-10-25T03:10:19.015Z,976.72
2017-10-25T03:11:29.029Z,976.72
2017-10-25T03:12:39.037Z,976.69
2017-10-25T03:13:49.377Z,976.69
2017-10-25T03:14:59.038Z,976.69
2017-10-25T03:16:09.384Z,976.71
2017-10-25T03:17:19.732Z,976.73
2017-10-25T03:18:29.736Z,976.71
2017-10-25T03:19:39.738Z,976.7
2017-10-25T03:20:50.079Z,976.7
2017-10-25T03:22:00.416Z,976.7
2017-10-25T03:23:10.756Z,976.71
2017-10-25T03:24:20.758Z,976.74
2017-10-25T03:25:30.088Z,976.74
2017-10-25T03:26:40.421Z,976.77
2017-10-25T03:27:50.423Z,976.76
2017-10-25T03:29:00.774Z,976.78
2017-10-25T03:30:11.119Z,976.77
2017-10-25T03:31:21.468Z,976.74
2017-10-25T03:32:31.471Z,976.79
2017-10-25T03:33:41.805Z,976.81
2017-10-25T03:34:51.811Z,976.78
2017-10-25T03:36:01.477Z,976.75
2017-10-25T03:37:11.489Z,976.75
2017-10-25T03:38:21.492Z,976.69
2017-10-25T03:39:31.195Z,976.67
2017-10-25T03:40:41.535Z,976.67
2017-10-25T03:41:51.873Z,976.63
2017-10-25T03:43:01.879Z,976.61
2017-10-25T03:44:11.899Z,976.66
2017-10-25T03:45:21.906Z,976.67
2017-10-25T03:46:31.910Z,976.68
2017-10-25T03:47:41.912Z,976.61
2017-10-25T03:48:52.263Z,976.59
2017-10-25T03:50:01.937Z,976.6
2017-10-25T03:51:12.303Z,976.55
2017-10-25T03:52:22.311Z,976.5
2017-10-25T03:53:32.316Z,976.51
2017-10-25T03:54:42.654Z,976.5
2017-10-25T03:55:52.656Z,976.5
2017-10-25T03:57:02.997Z,976.45
2017-10-25T03:58:13.333Z,976.45
2017-10-25T03:59:23.669Z,976.38
2017-10-25T04:00:34.010Z,976.38
2017-10-25T04:01:44.013Z,976.36
2017-10-25T04:02:54.352Z,976.35
2017-10-25T04:04:04.689Z,976.33
2017-10-25T04:05:15.046Z,976.3
2017-10-25T04:06:25.412Z,976.26
2017-10-25T04:07:35.759Z,976.28
2017-10-25T04:08:46.103Z,976.2
2017-10-25T04:09:56.458Z,976.21
2017-10-25T04:11:06.801Z,976.23
2017-10-25T04:12:17.142Z,976.2
2017-10-25T04:13:27.150Z,976.16
2017-10-25T04:14:37.497Z,976.13
2017-10-25T04:15:47.503Z,976.11
2017-10-25T04:16:57.863Z,976.1
2017-10-25T04:18:08.214Z,976.06
2017-10-25T04:19:18.551Z,976.05
2017-10-25T04:20:28.563Z,976.1
2017-10-25T04:21:38.899Z,976.11
2017-10-25T04:22:49.234Z,976.08
2017-10-25T04:23:59.250Z,976.1
2017-10-25T04:25:09.251Z,976.08
2017-10-25T04:26:19.257Z,976.1
2017-10-25T04:27:29.259Z,976.05
2017-10-25T04:28:38.927Z,976
2017-10-25T04:29:49.267Z,975.96
2017-10-25T04:30:59.270Z,975.92
2017-10-25T04:32:09.293Z,975.99
2017-10-25T04:33:19.642Z,975.97
2017-10-25T04:34:29.976Z,975.94
2017-10-25T04:35:40.327Z,975.93
2017-10-25T04:36:50.665Z,975.89
2017-10-25T04:38:00.677Z,975.9
2017-10-25T04:39:11.014Z,975.86
2017-10-25T04:40:21.353Z,975.84
2017-10-25T04:41:31.023Z,975.86
2017-10-25T04:42:41.361Z,975.81
2017-10-25T04:43:51.697Z,975.83
2017-10-25T04:45:02.039Z,975.8
2017-10-25T04:46:12.059Z,975.79
2017-10-25T04:47:22.400Z,975.78
2017-10-25T04:48:32.408Z,975.8
2017-10-25T04:49:42.750Z,975.79
2017-10-25T04:50:53.100Z,975.83
2017-10-25T04:52:03.102Z,975.84
2017-10-25T04:53:12.773Z,975.76
2017-10-25T04:54:23.115Z,975.74
2017-10-25T04:55:33.451Z,975.71
2017-10-25T04:56:43.126Z,975.73
2017-10-25T04:57:53.716Z,975.73
2017-10-25T04:59:03.720Z,975.71
2017-10-25T05:00:14.068Z,975.68
2017-10-25T05:01:24.084Z,975.66
2017-10-25T05:02:34.420Z,975.69
2017-10-25T05:03:44.776Z,975.65
2017-10-25T05:04:55.111Z,975.69
2017-10-25T05:06:05.124Z,975.7
2017-10-25T05:07:15.128Z,975.69
2017-10-25T05:08:25.493Z,975.68
2017-10-25T05:09:35.831Z,975.69
2017-10-25T05:10:46.167Z,975.65
2017-10-25T05:11:56.508Z,975.71
2017-10-25T05:13:06.848Z,975.74
2017-10-25T05:14:16.853Z,975.77
2017-10-25T05:15:27.194Z,975.76
2017-10-25T05:16:37.195Z,975.71
2017-10-25T05:17:47.233Z,975.71
2017-10-25T05:18:57.582Z,975.62
2017-10-25T05:20:07.593Z,975.6
2017-10-25T05:21:17.265Z,975.56
2017-10-25T05:22:27.606Z,975.55
2017-10-25T05:23:37.609Z,975.53
2017-10-25T05:24:47.951Z,975.5
2017-10-25T05:25:58.288Z,975.52
2017-10-25T05:27:07.965Z,975.5
2017-10-25T05:28:17.989Z,975.47
2017-10-25T05:29:28.337Z,975.44
2017-10-25T05:30:38.677Z,975.46
2017-10-25T05:31:49.018Z,975.43
2017-10-25T05:32:59.362Z,975.43
2017-10-25T05:34:09.703Z,975.47
2017-10-25T05:35:19.710Z,975.44
2017-10-25T05:36:29.715Z,975.42
2017-10-25T05:37:40.054Z,975.41
2017-10-25T05:38:50.390Z,975.36
2017-10-25T05:40:00.738Z,975.37
2017-10-25T05:41:10.746Z,975.35
2017-10-25T05:42:21.086Z,975.28
2017-10-25T05:43:31.101Z,975.34
2017-10-25T05:44:41.442Z,975.37
2017-10-25T05:45:51.791Z,975.35
2017-10-25T05:47:02.132Z,975.32
2017-10-25T05:48:12.474Z,975.29
2017-10-25T05:49:22.824Z,975.29
2017-10-25T05:50:33.161Z,975.26
2017-10-25T05:51:42.828Z,975.2
2017-10-25T05:52:52.840Z,975.22
2017-10-25T05:54:03.192Z,975.21
2017-10-25T05:55:13.545Z,975.26
2017-10-25T05:56:23.559Z,975.29
2017-10-25T05:57:33.916Z,975.32
2017-10-25T05:58:43.924Z,975.39
2017-10-25T05:59:54.262Z,975.4
2017-10-25T06:01:04.617Z,975.41
2017-10-25T06:02:14.617Z,975.4
2017-10-25T06:03:24.621Z,975.43
2017-10-25T06:04:34.631Z,975.44
2017-10-25T06:05:44.639Z,975.46
2017-10-25T06:06:54.646Z,975.43
2017-10-25T06:08:06.984Z,975.4
2017-10-25T06:09:17.014Z,975.41
2017-10-25T06:10:27.023Z,975.4
2017-10-25T06:11:37.024Z,975.38
2017-10-25T06:12:47.366Z,975.4
2017-10-25T06:13:57.704Z,975.39
2017-10-25T06:15:08.046Z,975.35
2017-10-25T06:16:18.385Z,975.32
2017-10-25T06:17:28.720Z,975.37
2017-10-25T06:18:38.736Z,975.33
2017-10-25T06:19:49.047Z,975.33
2017-10-25T06:20:59.386Z,975.34
2017-10-25T06:22:09.402Z,975.37
2017-10-25T06:23:19.406Z,975.43
2017-10-25T06:24:29.429Z,975.44
2017-10-25T06:25:39.432Z,975.5
2017-10-25T06:26:49.439Z,975.46
2017-10-25T06:27:59.819Z,975.47
2017-10-25T06:29:10.171Z,975.48
2017-10-25T06:30:20.184Z,975.45
2017-10-25T06:31:30.186Z,975.44
2017-10-25T06:32:40.541Z,975.42
2017-10-25T06:33:50.542Z,975.42
2017-10-25T06:35:00.890Z,975.43
2017-10-25T06:36:10.897Z,975.39
2017-10-25T06:37:21.237Z,975.39
2017-10-25T06:38:31.574Z,975.35
2017-10-25T06:39:41.243Z,975.33
2017-10-25T06:40:51.588Z,975.32
2017-10-25T06:42:01.615Z,975.29
2017-10-25T06:43:11.975Z,975.28
2017-10-25T06:44:22.314Z,975.27
2017-10-25T06:45:32.317Z,975.27
2017-10-25T06:46:41.983Z,975.28
2017-10-25T06:47:51.986Z,975.3
2017-10-25T06:49:01.989Z,975.33
2017-10-25T06:50:12.004Z,975.31
2017-10-25T06:51:22.349Z,975.27
2017-10-25T06:52:32.353Z,975.2
2017-10-25T06:53:42.363Z,975.2
2017-10-25T06:54:52.703Z,975.18
2017-10-25T06:56:03.047Z,975.14
2017-10-25T06:57:13.073Z,975.15
2017-10-25T06:58:23.066Z,975.08
2017-10-25T06:59:33.404Z,975.08
2017-10-25T07:00:43.748Z,975.15
2017-10-25T07:01:53.761Z,975.14
2017-10-25T07:03:03.775Z,975.17
2017-10-25T07:04:14.162Z,975.11
2017-10-25T07:05:24.500Z,975.06
2017-10-25T07:06:34.838Z,975.07
2017-10-25T07:07:45.181Z,975.09
2017-10-25T07:08:55.529Z,975.11
2017-10-25T07:10:05.874Z,975.1
2017-10-25T07:11:15.892Z,975.11
2017-10-25T07:12:26.234Z,975.15
2017-10-25T07:13:36.571Z,975.16
2017-10-25T07:14:46.912Z,975.16
2017-10-25T07:15:57.276Z,975.16
2017-10-25T07:17:07.285Z,975.17
2017-10-25T07:18:17.636Z,975.17
2017-10-25T07:19:27.640Z,975.17
2017-10-25T07:20:37.982Z,975.19
2017-10-25T07:21:48.319Z,975.24
2017-10-25T07:22:58.002Z,975.26
2017-10-25T07:24:08.349Z,975.25
2017-10-25T07:25:18.696Z,975.22
2017-10-25T07:26:29.039Z,975.19
2017-10-25T07:27:39.048Z,975.19
2017-10-25T07:28:49.400Z,975.19
2017-10-25T07:29:59.404Z,975.21
2017-10-25T07:31:09.745Z,975.22
2017-10-25T07:32:20.088Z,975.27
2017-10-25T07:33:30.459Z,975.25
2017-10-25T07:34:40.823Z,975.27
2017-10-25T07:35:51.161Z,975.3
2017-10-25T07:37:01.519Z,975.26
2017-10-25T07:38:11.862Z,975.23
2017-10-25T07:39:22.217Z,975.22
2017-10-25T07:40:32.224Z,975.19
2017-10-25T07:41:42.583Z,975.16
2017-10-25T07:42:52.585Z,975.13
2017-10-25T07:44:02.594Z,975.12
2017-10-25T07:45:12.597Z,975.08
2017-10-25T07:46:22.601Z,975.07
2017-10-25T07:47:32.604Z,975.07
2017-10-25T07:48:42.615Z,975.1
2017-10-25T07:49:52.990Z,975.07
2017-10-25T07:51:02.668Z,974.99
2017-10-25T07:52:13.024Z,974.95
2017-10-25T07:53:25.365Z,974.93
2017-10-25T07:54:35.707Z,974.91
2017-10-25T07:55:46.044Z,974.81
2017-10-25T07:56:56.384Z,974.8
2017-10-25T07:58:06.390Z,974.76
2017-10-25T07:59:16.783Z,974.76
2017-10-25T08:00:27.145Z,974.74
2017-10-25T08:01:37.484Z,974.71
2017-10-25T08:02:47.488Z,974.77
2017-10-25T08:03:57.834Z,974.77
2017-10-25T08:05:07.850Z,974.74
2017-10-25T08:06:18.196Z,974.72
2017-10-25T08:07:28.197Z,974.71
2017-10-25T08:08:38.549Z,974.71
2017-10-25T08:09:48.907Z,974.73
2017-10-25T08:10:58.583Z,974.71
2017-10-25T08:12:08.253Z,974.75
2017-10-25T08:13:17.926Z,974.7
2017-10-25T08:14:28.270Z,974.7
2017-10-25T08:15:38.273Z,974.69
2017-10-25T08:16:48.295Z,974.66
2017-10-25T08:17:58.643Z,974.63
2017-10-25T08:19:08.985Z,974.63
2017-10-25T08:20:19.322Z,974.6
2017-10-25T08:21:29.660Z,974.63
2017-10-25T08:22:39.334Z,974.62
2017-10-25T08:23:49.353Z,974.52
2017-10-25T08:24:59.692Z,974.48
2017-10-25T08:26:09.358Z,974.43
2017-10-25T08:27:19.372Z,974.39
2017-10-25T08:28:28.704Z,974.38
2017-10-25T08:29:38.718Z,974.35
2017-10-25T08:30:48.726Z,974.32
2017-10-25T08:31:59.065Z,974.31
2017-10-25T08:33:09.409Z,974.35
2017-10-25T08:34:19.438Z,974.34
2017-10-25T08:35:29.874Z,974.42
2017-10-25T08:36:40.132Z,974.49
2017-10-25T08:37:50.662Z,974.57
2017-10-25T08:39:01.178Z,974.6
2017-10-25T08:40:11.598Z,974.64
2017-10-25T08:41:21.666Z,974.71
2017-10-25T08:42:32.004Z,974.73
2017-10-25T08:43:42.023Z,974.75
2017-10-25T08:44:51.693Z,974.78
2017-10-25T08:46:02.043Z,974.8
2017-10-25T08:47:12.400Z,974.8
2017-10-25T08:48:22.745Z,974.79
2017-10-25T08:49:33.095Z,974.79
2017-10-25T08:50:42.775Z,974.8
2017-10-25T08:51:53.116Z,974.84
2017-10-25T08:53:03.488Z,974.75
2017-10-25T08:54:13.831Z,974.77
2017-10-25T08:55:23.839Z,974.79
2017-10-25T08:56:33.849Z,974.79
2017-10-25T08:57:44.192Z,974.82
2017-10-25T08:58:53.862Z,974.89
2017-10-25T09:00:03.908Z,974.93
2017-10-25T09:01:14.253Z,974.93
2017-10-25T09:02:23.923Z,974.95
2017-10-25T09:03:34.339Z,974.92
2017-10-25T09:04:44.362Z,974.92
2017-10-25T09:05:54.704Z,974.84
2017-10-25T09:07:04.711Z,974.81
2017-10-25T09:08:15.056Z,974.81
2017-10-25T09:09:25.396Z,974.79
2017-10-25T09:10:35.423Z,974.79
2017-10-25T09:11:45.761Z,974.78
2017-10-25T09:12:55.770Z,974.83
2017-10-25T09:14:05.772Z,974.8
2017-10-25T09:15:16.112Z,974.8
2017-10-25T09:16:26.456Z,974.85
2017-10-25T09:17:36.461Z,974.81
2017-10-25T09:18:46.461Z,974.8
2017-10-25T09:19:56.469Z,974.83
2017-10-25T09:21:06.808Z,974.85
2017-10-25T09:22:16.824Z,974.84
2017-10-25T09:23:26.499Z,974.87
2017-10-25T09:24:36.836Z,974.94
2017-10-25T09:25:47.174Z,974.93
2017-10-25T09:26:57.187Z,974.96
2017-10-25T09:28:07.208Z,974.93
2017-10-25T09:29:17.217Z,974.96
2017-10-25T09:30:27.563Z,974.96
2017-10-25T09:31:37.563Z,974.95
2017-10-25T09:32:47.904Z,974.94
2017-10-25T09:33:57.913Z,974.94
2017-10-25T09:35:07.590Z,974.96
2017-10-25T09:36:17.965Z,974.95
2017-10-25T09:37:27.970Z,974.89
2017-10-25T09:38:38.312Z,974.92
2017-10-25T09:39:48.655Z,974.89
2017-10-25T09:40:58.325Z,974.85
2017-10-25T09:42:08.003Z,974.87
2017-10-25T09:43:18.350Z,974.85
2017-10-25T09:44:28.372Z,974.86
2017-10-25T09:45:38.716Z,974.87
2017-10-25T09:46:49.051Z,974.8
2017-10-25T09:47:58.723Z,974.76
2017-10-25T09:49:09.062Z,974.75
2017-10-25T09:50:19.062Z,974.76
2017-10-25T09:51:29.076Z,974.8
2017-10-25T09:52:39.417Z,974.8
2017-10-25T09:53:49.759Z,974.77
2017-10-25T09:54:59.091Z,974.8
2017-10-25T09:56:09.434Z,974.86
2017-10-25T09:57:19.780Z,974.86
2017-10-25T09:58:29.777Z,974.89
2017-10-25T09:59:39.449Z,974.93
2017-10-25T10:00:49.792Z,974.89
2017-10-25T10:02:00.137Z,974.92
2017-10-25T10:03:10.475Z,974.87
2017-10-25T10:04:20.816Z,974.93
2017-10-25T10:05:31.155Z,974.9
2017-10-25T10:06:41.497Z,974.9
2017-10-25T10:07:51.838Z,974.88
2017-10-25T10:09:02.180Z,974.85
2017-10-25T10:10:12.182Z,974.82
2017-10-25T10:11:22.521Z,974.77
2017-10-25T10:12:32.859Z,974.74
2017-10-25T10:13:43.217Z,974.77
2017-10-25T10:14:53.216Z,974.77
2017-10-25T10:16:03.238Z,974.76
2017-10-25T10:17:13.577Z,974.82
2017-10-25T10:18:23.911Z,974.82
2017-10-25T10:19:33.915Z,974.79
2017-10-25T10:20:43.941Z,974.77
2017-10-25T10:21:54.276Z,974.77
2017-10-25T10:23:03.943Z,974.79
2017-10-25T10:24:13.627Z,974.82
2017-10-25T10:25:23.971Z,974.8
2017-10-25T10:26:33.640Z,974.78
2017-10-25T10:27:43.645Z,974.73
2017-10-25T10:28:53.650Z,974.72
2017-10-25T10:30:02.984Z,974.72
2017-10-25T10:31:13.350Z,974.75
2017-10-25T10:32:23.685Z,974.79
2017-10-25T10:33:34.025Z,974.76
2017-10-25T10:34:44.363Z,974.76
2017-10-25T10:35:54.708Z,974.75
2017-10-25T10:37:04.381Z,974.76
2017-10-25T10:38:14.064Z,974.78
2017-10-25T10:39:24.078Z,974.8
2017-10-25T10:40:34.422Z,974.8
2017-10-25T10:41:44.789Z,974.82
2017-10-25T10:42:54.796Z,974.8
2017-10-25T10:44:04.466Z,974.83
2017-10-25T10:45:14.805Z,974.79
2017-10-25T10:46:24.472Z,974.74
2017-10-25T10:47:34.479Z,974.74
2017-10-25T10:48:44.814Z,974.72
2017-10-25T10:49:55.152Z,974.72
2017-10-25T10:51:05.494Z,974.75
2017-10-25T10:52:15.835Z,974.72
2017-10-25T10:53:26.190Z,974.7
2017-10-25T10:54:36.528Z,974.65
2017-10-25T10:55:46.529Z,974.61
2017-10-25T10:56:56.537Z,974.6
2017-10-25T10:58:06.547Z,974.63
2017-10-25T10:59:16.892Z,974.62
2017-10-25T11:00:27.229Z,974.71
2017-10-25T11:01:36.567Z,974.71
2017-10-25T11:02:46.908Z,974.64
2017-10-25T11:03:56.911Z,974.6
2017-10-25T11:05:07.264Z,974.54
2017-10-25T11:06:17.611Z,974.52
2017-10-25T11:07:27.951Z,974.5
2017-10-25T11:08:37.640Z,974.59
2017-10-25T11:09:47.982Z,974.57
2017-10-25T11:10:58.333Z,974.51
2017-10-25T11:12:08.009Z,974.48
2017-10-25T11:13:18.357Z,974.44
2017-10-25T11:14:28.710Z,974.42
2017-10-25T11:15:38.719Z,974.44
2017-10-25T11:16:48.407Z,974.4
2017-10-25T11:17:58.424Z,974.46
2017-10-25T11:19:08.786Z,974.46
2017-10-25T11:20:18.811Z,974.48
2017-10-25T11:21:28.820Z,974.51
2017-10-25T11:22:38.527Z,974.5
2017-10-25T11:23:47.864Z,974.46
2017-10-25T11:24:58.216Z,974.43
2017-10-25T11:26:08.572Z,974.43
2017-10-25T11:27:18.582Z,974.43
2017-10-25T11:28:28.938Z,974.41
2017-10-25T11:29:39.279Z,974.42
2017-10-25T11:30:49.621Z,974.47
2017-10-25T11:31:59.648Z,974.45
2017-10-25T11:33:09.320Z,974.44
2017-10-25T11:34:19.661Z,974.44
2017-10-25T11:35:29.676Z,974.38
2017-10-25T11:36:40.019Z,974.39
2017-10-25T11:37:50.024Z,974.39
2017-10-25T11:39:00.374Z,974.37
2017-10-25T11:40:10.725Z,974.37
2017-10-25T11:41:21.366Z,974.33
2017-10-25T11:42:31.378Z,974.3
2017-10-25T11:43:41.728Z,974.31
2017-10-25T11:44:51.422Z,974.37
2017-10-25T11:46:01.771Z,974.42
2017-10-25T11:47:11.441Z,974.44
2017-10-25T11:48:21.112Z,974.44
2017-10-25T11:49:30.786Z,974.44
2017-10-25T11:50:41.149Z,974.44
2017-10-25T11:51:51.143Z,974.42
2017-10-25T11:53:01.173Z,974.47
2017-10-25T11:54:11.520Z,974.47
2017-10-25T11:55:21.193Z,974.48
2017-10-25T11:56:31.224Z,974.51
2017-10-25T11:57:41.234Z,974.44
2017-10-25T11:58:51.258Z,974.4
2017-10-25T12:00:01.605Z,974.45
2017-10-25T12:01:11.614Z,974.48
2017-10-25T12:02:21.967Z,974.43
2017-10-25T12:03:32.315Z,974.52
2017-10-25T12:04:42.656Z,974.38
2017-10-25T12:05:52.663Z,974.41
2017-10-25T12:07:02.678Z,974.4
2017-10-25T12:08:13.045Z,974.44
2017-10-25T12:09:23.054Z,974.51
2017-10-25T12:10:33.390Z,974.47
2017-10-25T12:11:43.402Z,974.45
2017-10-25T12:12:53.742Z,974.38
2017-10-25T12:14:04.080Z,974.45
2017-10-25T12:15:14.085Z,974.4
2017-10-25T12:16:24.425Z,974.38
2017-10-25T12:17:34.438Z,974.37
2017-10-25T12:18:44.776Z,974.37
2017-10-25T12:19:55.122Z,974.34
2017-10-25T12:21:05.128Z,974.33
2017-10-25T12:22:15.475Z,974.3
2017-10-25T12:23:25.833Z,974.26
2017-10-25T12:24:36.173Z,974.24
2017-10-25T12:25:45.509Z,974.23
2017-10-25T12:26:55.525Z,974.35
2017-10-25T12:28:05.561Z,974.31
2017-10-25T12:29:15.907Z,974.34
2017-10-25T12:30:25.930Z,974.31
2017-10-25T12:31:36.270Z,974.26
2017-10-25T12:32:46.606Z,974.19
2017-10-25T12:33:58.611Z,974.13
2017-10-25T12:35:08.965Z,974.06
2017-10-25T12:36:18.970Z,974.04
2017-10-25T12:37:29.313Z,974.01
2017-10-25T12:38:39.318Z,973.98
2017-10-25T12:39:49.660Z,973.94
2017-10-25T12:41:00.008Z,973.93
2017-10-25T12:42:10.363Z,973.94
2017-10-25T12:43:20.707Z,973.97
2017-10-25T12:44:31.052Z,973.97
2017-10-25T12:45:40.728Z,973.98
2017-10-25T12:46:51.076Z,973.95
2017-10-25T12:48:01.102Z,974.01
2017-10-25T12:49:11.451Z,974
2017-10-25T12:50:21.455Z,974
2017-10-25T12:51:31.470Z,974.06
2017-10-25T12:52:41.809Z,974.12
2017-10-25T12:53:52.153Z,974.01
2017-10-25T12:55:02.497Z,973.95
2017-10-25T12:56:12.851Z,973.89
2017-10-25T12:57:23.199Z,973.9
2017-10-25T12:58:33.539Z,973.91
2017-10-25T12:59:43.891Z,973.91
2017-10-25T13:00:53.582Z,973.9
2017-10-25T13:02:03.256Z,973.9
2017-10-25T13:03:13.280Z,973.89
2017-10-25T13:04:23.625Z,973.94
2017-10-25T13:05:33.295Z,974
2017-10-25T13:06:43.635Z,973.98
2017-10-25T13:07:53.643Z,973.96
2017-10-25T13:09:03.992Z,973.98
2017-10-25T13:10:14.009Z,973.96
2017-10-25T13:11:23.688Z,973.98
2017-10-25T13:12:34.037Z,973.99
2017-10-25T13:13:44.390Z,973.94
2017-10-25T13:14:54.409Z,973.97
2017-10-25T13:16:04.427Z,974.03
2017-10-25T13:17:14.097Z,974.05
2017-10-25T13:18:24.139Z,974.08
2017-10-25T13:19:34.148Z,974.14
2017-10-25T13:20:44.164Z,974.14
2017-10-25T13:21:54.188Z,974.15
2017-10-25T13:23:04.546Z,974.08
2017-10-25T13:24:14.223Z,974.09
2017-10-25T13:25:24.232Z,974.11
2017-10-25T13:26:34.249Z,974.15
2017-10-25T13:27:44.597Z,974.11
2017-10-25T13:28:54.950Z,974.09
2017-10-25T13:30:05.304Z,974.09
2017-10-25T13:31:15.645Z,974.07
2017-10-25T13:32:25.986Z,974.09
2017-10-25T13:33:36.000Z,974.08
2017-10-25T13:34:46.342Z,974.07
2017-10-25T13:35:56.346Z,974.11
2017-10-25T13:37:06.017Z,974.12
2017-10-25T13:38:16.044Z,974.2
2017-10-25T13:39:26.393Z,974.23
2017-10-25T13:40:36.413Z,974.07
2017-10-25T13:41:46.754Z,974.12
2017-10-25T13:42:57.100Z,974.11
2017-10-25T13:44:07.444Z,974.13
2017-10-25T13:45:17.799Z,974.12
2017-10-25T13:46:28.142Z,974.09
2017-10-25T13:47:38.479Z,974.11
2017-10-25T13:48:48.817Z,974.05
2017-10-25T13:49:58.483Z,974.08
2017-10-25T13:51:08.490Z,974.07
2017-10-25T13:52:18.843Z,974.11
2017-10-25T13:53:29.193Z,974.16
2017-10-25T13:54:39.540Z,974.19
2017-10-25T13:55:49.541Z,974.24
2017-10-25T13:56:59.886Z,974.22
2017-10-25T13:58:10.240Z,974.22
2017-10-25T13:59:20.580Z,974.18
2017-10-25T14:00:30.928Z,974.2
2017-10-25T14:01:40.940Z,974.13
2017-10-25T14:02:51.288Z,974.09
2017-10-25T14:04:01.630Z,974.07
2017-10-25T14:05:11.973Z,974.09
2017-10-25T14:06:21.980Z,974.11
2017-10-25T14:07:31.999Z,974.08
2017-10-25T14:08:42.003Z,974.13
2017-10-25T14:09:52.006Z,974.1
2017-10-25T14:11:02.012Z,974.09
2017-10-25T14:12:12.021Z,974.06
2017-10-25T14:13:22.401Z,974.09
2017-10-25T14:14:32.751Z,974.12
2017-10-25T14:15:43.100Z,974.1
2017-10-25T14:16:53.110Z,974.05
2017-10-25T14:18:03.494Z,974.03
2017-10-25T14:19:13.507Z,974.05
2017-10-25T14:20:23.510Z,974.02
2017-10-25T14:21:33.183Z,974.08
2017-10-25T14:22:43.187Z,974.08
2017-10-25T14:23:53.529Z,974.07
2017-10-25T14:25:03.871Z,974.03
2017-10-25T14:26:13.874Z,974.07
2017-10-25T14:27:24.208Z,974.03
2017-10-25T14:28:34.217Z,974.03
2017-10-25T14:29:44.552Z,974.04
2017-10-25T14:30:54.552Z,974.1
2017-10-25T14:32:04.560Z,974.12
2017-10-25T14:33:14.231Z,974.15
2017-10-25T14:34:24.229Z,974.09
2017-10-25T14:35:34.570Z,974.04
2017-10-25T14:36:44.914Z,973.98
2017-10-25T14:37:54.914Z,973.92
2017-10-25T14:39:05.256Z,973.94
2017-10-25T14:40:15.615Z,973.97